createdAt,value
2023-04-08T00:00:58.722Z,100448.50
2023-04-08T00:03:28.034Z,100442.19
2023-04-08T00:05:57.185Z,100443.88
2023-04-08T00:08:29.046Z,100446.03
2023-04-08T00:10:58.021Z,100449.16
2023-04-08T00:13:27.588Z,100457.97
2023-04-08T00:15:56.798Z,100457.34
2023-04-08T00:18:32.501Z,100450.53
2023-04-08T00:21:01.950Z,100458.56
2023-04-08T00:23:31.092Z,100458.75
2023-04-08T00:26:01.349Z,100468.47
2023-04-08T00:28:30.284Z,100470.94
2023-04-08T00:30:59.509Z,100466.19
2023-04-08T00:33:28.978Z,100469.44
2023-04-08T00:35:58.089Z,100471.75
2023-04-08T00:38:29.183Z,100477.38
2023-04-08T00:41:01.884Z,100482.53
2023-04-08T00:43:48.187Z,100488.53
2023-04-08T00:46:23.490Z,100492.56
2023-04-08T00:49:23.784Z,100498.53
2023-04-08T00:52:16.646Z,100495.72
2023-04-08T00:55:07.042Z,100509.63
2023-04-08T00:57:39.915Z,100516.34
2023-04-08T01:00:17.386Z,100513.97
2023-04-08T01:03:27.073Z,100522.69
2023-04-08T01:06:32.172Z,100536.91
2023-04-08T01:09:18.330Z,100545.59
2023-04-08T01:12:00.395Z,100537.69
2023-04-08T01:14:44.076Z,100555.13
2023-04-08T01:17:56.391Z,100564.66
2023-04-08T01:20:44.856Z,100559.06
2023-04-08T01:24:35.887Z,100566.19
2023-04-08T01:27:42.459Z,100575.69
2023-04-08T01:30:17.245Z,100580.44
2023-04-08T01:33:32.380Z,100588.75
2023-04-08T01:36:42.211Z,100596.94
2023-04-08T01:39:31.886Z,100599.28
2023-04-08T01:43:14.824Z,100600.09
2023-04-08T01:45:52.010Z,100607.56
2023-04-08T01:48:38.152Z,100610.75
2023-04-08T01:51:12.573Z,100614.66
2023-04-08T01:53:44.233Z,100617.38
2023-04-08T01:56:20.873Z,100616.59
2023-04-08T01:58:58.617Z,100613.28
2023-04-08T02:01:36.766Z,100604.66
2023-04-08T02:04:35.667Z,100618.88
2023-04-08T02:07:09.188Z,100613.28
2023-04-08T02:09:48.187Z,100617.94
2023-04-08T02:16:46.412Z,100629.03
2023-04-08T02:19:50.058Z,100631.81
2023-04-08T02:22:46.783Z,100633.88
2023-04-08T02:25:31.541Z,100635.03
2023-04-08T02:28:12.826Z,100640.91
2023-04-08T02:31:03.690Z,100641.75
2023-04-08T02:33:50.170Z,100645.00
2023-04-08T02:40:15.274Z,100662.34
2023-04-08T02:42:49.294Z,100662.38
2023-04-08T02:45:47.036Z,100675.00
2023-04-08T02:48:43.879Z,100687.28
2023-04-08T02:52:09.816Z,100684.91
2023-04-08T02:55:22.611Z,100687.59
2023-04-08T02:58:40.396Z,100691.56
2023-04-08T03:01:22.755Z,100693.06
2023-04-08T03:03:54.549Z,100692.25
2023-04-08T03:07:27.158Z,100701.59
2023-04-08T03:10:33.524Z,100713.34
2023-04-08T03:13:03.642Z,100714.41
2023-04-08T03:15:33.109Z,100720.66
2023-04-08T03:18:03.167Z,100722.59
2023-04-08T03:20:34.876Z,100729.81
2023-04-08T03:23:05.384Z,100742.38
2023-04-08T03:25:34.592Z,100749.94
2023-04-08T03:28:04.520Z,100746.38
2023-04-08T03:30:33.748Z,100740.03
2023-04-08T03:33:06.202Z,100755.00
2023-04-08T03:35:36.797Z,100746.38
2023-04-08T03:38:08.311Z,100751.97
2023-04-08T03:40:37.620Z,100755.72
2023-04-08T03:43:07.621Z,100768.03
2023-04-08T03:45:36.787Z,100771.38
2023-04-08T03:48:06.042Z,100777.84
2023-04-08T03:50:35.229Z,100773.97
2023-04-08T03:53:04.213Z,100783.25
2023-04-08T03:55:34.382Z,100781.78
2023-04-08T03:58:03.729Z,100781.03
2023-04-08T04:00:33.403Z,100787.34
2023-04-08T04:04:34.210Z,100803.81
2023-04-08T04:06:38.614Z,100802.88
2023-04-08T04:09:08.117Z,100804.25
2023-04-08T04:11:41.001Z,100814.59
2023-04-08T04:18:26.921Z,100816.25
2023-04-08T04:20:59.141Z,100827.38
2023-04-08T04:23:29.890Z,100829.06
2023-04-08T04:26:23.551Z,100829.91
2023-04-08T04:28:58.220Z,100833.97
2023-04-08T04:31:40.061Z,100824.38
2023-04-08T04:34:20.736Z,100828.31
2023-04-08T04:36:52.648Z,100819.44
2023-04-08T04:39:25.233Z,100823.53
2023-04-08T04:42:08.502Z,100819.59
2023-04-08T04:44:54.068Z,100825.88
2023-04-08T04:47:24.770Z,100824.72
2023-04-08T04:49:54.095Z,100823.19
2023-04-08T04:52:23.277Z,100824.38
2023-04-08T04:54:55.356Z,100821.59
2023-04-08T04:57:24.574Z,100822.78
2023-04-08T04:59:53.662Z,100822.75
2023-04-08T05:02:26.305Z,100827.47
2023-04-08T05:04:57.954Z,100820.25
2023-04-08T05:07:32.572Z,100830.09
2023-04-08T05:10:07.276Z,100829.59
2023-04-08T05:12:38.096Z,100816.41
2023-04-08T05:15:10.141Z,100823.00
2023-04-08T05:17:56.120Z,100825.25
2023-04-08T05:20:25.206Z,100828.06
2023-04-08T05:22:54.466Z,100822.91
2023-04-08T05:25:25.541Z,100829.72
2023-04-08T05:27:54.980Z,100826.94
2023-04-08T05:30:25.703Z,100821.63
2023-04-08T05:33:28.524Z,100835.09
2023-04-08T05:36:05.788Z,100831.72
2023-04-08T05:38:35.478Z,100822.31
2023-04-08T05:41:04.637Z,100827.88
2023-04-08T05:43:39.969Z,100829.03
2023-04-08T05:46:20.785Z,100834.72
2023-04-08T05:48:55.887Z,100824.94
2023-04-08T05:51:27.548Z,100825.25
2023-04-08T05:53:59.623Z,100826.53
2023-04-08T05:56:33.132Z,100817.69
2023-04-08T05:59:02.761Z,100813.03
2023-04-08T06:01:32.186Z,100816.75
2023-04-08T06:04:04.518Z,100819.16
2023-04-08T06:06:40.151Z,100817.34
2023-04-08T06:09:15.197Z,100823.47
2023-04-08T06:11:58.739Z,100821.16
2023-04-08T06:14:47.928Z,100818.22
2023-04-08T06:17:33.108Z,100821.22
2023-04-08T06:20:25.237Z,100821.16
2023-04-08T06:23:30.912Z,100820.56
2023-04-08T06:25:53.612Z,100816.34
2023-04-08T06:28:54.725Z,100826.81
2023-04-08T06:31:23.960Z,100827.69
2023-04-08T06:34:17.899Z,100831.00
2023-04-08T06:36:54.119Z,100831.00
2023-04-08T06:39:33.562Z,100826.09
2023-04-08T06:42:19.946Z,100829.41
2023-04-08T06:45:14.829Z,100834.28
2023-04-08T06:47:47.229Z,100827.81
2023-04-08T06:53:11.774Z,100841.22
2023-04-08T06:56:03.476Z,100840.63
2023-04-08T06:58:35.803Z,100838.41
2023-04-08T07:01:05.129Z,100838.75
2023-04-08T07:03:39.936Z,100834.81
2023-04-08T07:06:12.308Z,100831.06
2023-04-08T07:08:46.031Z,100830.75
2023-04-08T07:11:16.556Z,100837.16
2023-04-08T07:14:01.629Z,100829.56
2023-04-08T07:16:42.514Z,100828.47
2023-04-08T07:19:14.220Z,100827.41
2023-04-08T07:21:44.159Z,100825.22
2023-04-08T07:24:21.313Z,100833.22
2023-04-08T07:26:56.265Z,100837.56
2023-04-08T07:29:36.649Z,100834.81
2023-04-08T07:32:06.125Z,100842.31
2023-04-08T07:34:38.907Z,100840.22
2023-04-08T07:37:11.065Z,100845.53
2023-04-08T07:39:41.922Z,100843.94
2023-04-08T07:42:11.101Z,100840.28
2023-04-08T07:44:42.064Z,100833.97
2023-04-08T07:47:14.237Z,100840.06
2023-04-08T07:49:51.270Z,100841.28
2023-04-08T07:52:41.582Z,100839.88
2023-04-08T07:55:11.301Z,100834.53
2023-04-08T07:57:44.507Z,100835.41
2023-04-08T08:00:15.957Z,100842.19
2023-04-08T08:02:50.737Z,100845.34
2023-04-08T08:05:22.809Z,100846.53
2023-04-08T08:07:52.156Z,100843.19
2023-04-08T08:10:41.623Z,100835.31
2023-04-08T08:13:17.790Z,100838.66
2023-04-08T08:15:58.509Z,100846.66
2023-04-08T08:18:42.712Z,100840.63
2023-04-08T08:21:11.887Z,100844.59
2023-04-08T08:24:08.669Z,100851.50
2023-04-08T08:27:05.555Z,100837.50
2023-04-08T08:29:38.286Z,100853.69
2023-04-08T08:32:07.765Z,100848.53
2023-04-08T08:34:36.919Z,100850.69
2023-04-08T08:37:10.458Z,100847.00
2023-04-08T08:39:39.631Z,100845.31
2023-04-08T08:45:12.373Z,100854.19
2023-04-08T08:47:41.656Z,100848.81
2023-04-08T08:50:31.682Z,100856.53
2023-04-08T08:53:36.262Z,100870.69
2023-04-08T08:58:52.224Z,100875.94
2023-04-08T09:01:40.721Z,100862.91
2023-04-08T09:05:12.220Z,100868.66
2023-04-08T09:07:29.045Z,100868.03
2023-04-08T09:09:59.938Z,100868.03
2023-04-08T09:12:29.470Z,100865.25
2023-04-08T09:15:24.697Z,100855.91
2023-04-08T09:17:54.050Z,100854.25
2023-04-08T09:20:25.390Z,100852.91
2023-04-08T09:23:16.150Z,100865.25
2023-04-08T09:25:47.751Z,100860.03
2023-04-08T09:28:25.506Z,100861.56
2023-04-08T09:31:11.137Z,100859.88
2023-04-08T09:33:40.272Z,100849.75
2023-04-08T09:36:10.292Z,100852.47
2023-04-08T09:38:48.448Z,100856.28
2023-04-08T09:41:19.441Z,100856.84
2023-04-08T09:43:56.631Z,100859.59
2023-04-08T09:46:34.727Z,100857.16
2023-04-08T09:49:37.882Z,100857.94
2023-04-08T09:52:33.981Z,100859.59
2023-04-08T09:55:18.816Z,100857.09
2023-04-08T09:58:28.439Z,100863.16
2023-04-08T10:01:01.165Z,100858.44
2023-04-08T10:03:44.080Z,100859.88
2023-04-08T10:06:29.442Z,100852.19
2023-04-08T10:08:59.222Z,100864.38
2023-04-08T10:11:30.868Z,100851.84
2023-04-08T10:14:06.873Z,100857.25
2023-04-08T10:17:20.640Z,100851.84
2023-04-08T10:19:50.402Z,100849.41
2023-04-08T10:22:31.248Z,100853.09
2023-04-08T10:25:18.435Z,100850.84
2023-04-08T10:27:50.709Z,100845.66
2023-04-08T10:30:28.908Z,100853.50
2023-04-08T10:33:02.786Z,100849.84
2023-04-08T10:35:47.085Z,100848.53
2023-04-08T10:38:19.641Z,100839.78
2023-04-08T10:40:50.785Z,100848.31
2023-04-08T10:43:20.369Z,100846.81
2023-04-08T10:45:54.976Z,100848.13
2023-04-08T10:48:29.973Z,100853.31
2023-04-08T10:51:14.552Z,100851.56
2023-04-08T10:53:44.386Z,100855.38
2023-04-08T10:56:20.026Z,100853.47
2023-04-08T10:58:57.294Z,100876.31
2023-04-08T11:01:45.796Z,100873.03
2023-04-08T11:04:27.287Z,100870.66
2023-04-08T11:06:56.664Z,100869.91
2023-04-08T11:09:28.222Z,100868.78
2023-04-08T11:12:15.225Z,100870.66
2023-04-08T11:14:44.416Z,100861.63
2023-04-08T11:17:17.379Z,100868.25
2023-04-08T11:19:52.190Z,100879.59
2023-04-08T11:22:22.222Z,100871.13
2023-04-08T11:24:57.600Z,100880.59
2023-04-08T11:27:31.820Z,100880.97
2023-04-08T11:30:19.020Z,100877.84
2023-04-08T11:32:51.374Z,100871.13
2023-04-08T11:35:21.598Z,100872.44
2023-04-08T11:37:53.352Z,100881.28
2023-04-08T11:40:29.655Z,100884.38
2023-04-08T11:42:58.830Z,100879.25
2023-04-08T11:45:29.339Z,100876.75
2023-04-08T11:48:29.016Z,100869.91
2023-04-08T11:51:14.640Z,100873.00
2023-04-08T11:53:50.429Z,100867.66
2023-04-08T11:56:24.340Z,100868.31
2023-04-08T11:58:54.594Z,100866.47
2023-04-08T12:01:26.712Z,100867.19
2023-04-08T12:04:01.589Z,100865.00
2023-04-08T12:06:43.821Z,100864.44
2023-04-08T12:09:18.162Z,100863.41
2023-04-08T12:11:47.559Z,100871.22
2023-04-08T12:14:16.631Z,100864.75
2023-04-08T12:16:49.694Z,100861.31
2023-04-08T12:19:21.261Z,100866.34
2023-04-08T12:21:55.349Z,100868.06
2023-04-08T12:24:49.823Z,100864.88
2023-04-08T12:27:18.972Z,100868.22
2023-04-08T12:29:51.154Z,100867.19
2023-04-08T12:32:25.973Z,100866.47
2023-04-08T12:34:55.284Z,100867.28
2023-04-08T12:37:37.275Z,100869.84
2023-04-08T12:40:16.022Z,100869.63
2023-04-08T12:42:54.169Z,100880.59
2023-04-08T12:45:23.394Z,100876.66
2023-04-08T12:47:55.904Z,100870.78
2023-04-08T12:50:28.102Z,100877.66
2023-04-08T12:53:00.503Z,100869.53
2023-04-08T12:55:31.783Z,100865.53
2023-04-08T12:58:05.990Z,100858.63
2023-04-08T13:00:38.509Z,100858.47
2023-04-08T13:03:22.430Z,100859.53
2023-04-08T13:05:54.147Z,100861.94
2023-04-08T13:08:28.772Z,100859.16
2023-04-08T13:11:00.318Z,100844.44
2023-04-08T13:13:32.332Z,100854.69
2023-04-08T13:16:01.627Z,100855.56
2023-04-08T13:18:30.786Z,100842.81
2023-04-08T13:21:01.760Z,100856.34
2023-04-08T13:23:33.710Z,100851.88
2023-04-08T13:26:07.710Z,100860.06
2023-04-08T13:29:02.389Z,100859.41
2023-04-08T13:31:31.859Z,100856.75
2023-04-08T13:34:06.929Z,100861.41
2023-04-08T13:36:39.213Z,100868.84
2023-04-08T13:39:13.236Z,100861.41
2023-04-08T13:41:48.372Z,100862.41
2023-04-08T13:44:26.423Z,100857.63
2023-04-08T13:46:55.472Z,100853.88
2023-04-08T13:49:28.684Z,100849.19
2023-04-08T13:51:57.856Z,100853.41
2023-04-08T13:54:32.829Z,100852.28
2023-04-08T13:57:02.367Z,100850.81
2023-04-08T13:59:31.294Z,100850.69
2023-04-08T14:02:08.911Z,100858.53
2023-04-08T14:04:38.497Z,100869.31
2023-04-08T14:07:07.755Z,100858.97
2023-04-08T14:09:39.964Z,100862.31
2023-04-08T14:12:09.200Z,100860.00
2023-04-08T14:14:38.183Z,100858.69
2023-04-08T14:17:07.347Z,100859.53
2023-04-08T14:19:36.755Z,100856.06
2023-04-08T14:22:05.998Z,100856.34
2023-04-08T14:24:35.612Z,100854.34
2023-04-08T14:27:05.720Z,100847.06
2023-04-08T14:29:34.997Z,100851.78
2023-04-08T14:32:16.265Z,100853.00
2023-04-08T14:35:15.713Z,100866.66
2023-04-08T14:38:31.120Z,100863.63
2023-04-08T14:41:02.483Z,100873.66
2023-04-08T14:44:03.106Z,100877.44
2023-04-08T14:46:38.770Z,100875.53
2023-04-08T14:49:10.673Z,100880.63
2023-04-08T14:51:48.858Z,100879.06
2023-04-08T14:55:01.086Z,100868.03
2023-04-08T14:57:44.025Z,100872.28
2023-04-08T15:00:13.812Z,100862.31
2023-04-08T15:02:45.911Z,100870.00
2023-04-08T15:05:23.790Z,100882.16
2023-04-08T15:07:53.218Z,100886.00
2023-04-08T15:10:22.337Z,100895.53
2023-04-08T15:12:51.477Z,100879.03
2023-04-08T15:15:20.953Z,100880.56
2023-04-08T15:17:52.038Z,100883.16
2023-04-08T15:20:21.473Z,100891.09
2023-04-08T15:22:50.525Z,100893.81
2023-04-08T15:25:22.868Z,100895.66
2023-04-08T15:27:52.679Z,100900.53
2023-04-08T15:30:25.970Z,100905.03
2023-04-08T15:32:58.284Z,100898.28
2023-04-08T15:35:31.234Z,100905.56
2023-04-08T15:38:01.408Z,100909.50
2023-04-08T15:40:34.668Z,100910.22
2023-04-08T15:43:07.591Z,100910.31
2023-04-08T15:45:39.400Z,100903.78
2023-04-08T15:48:08.559Z,100908.66
2023-04-08T15:50:37.608Z,100915.19
2023-04-08T15:53:18.192Z,100911.34
2023-04-08T15:55:48.868Z,100909.72
2023-04-08T15:58:18.433Z,100900.50
2023-04-08T16:00:47.584Z,100915.00
2023-04-08T16:03:16.621Z,100921.13
2023-04-08T16:05:45.690Z,100920.69
2023-04-08T16:08:14.872Z,100929.59
2023-04-08T16:10:44.140Z,100945.53
2023-04-08T16:13:13.145Z,100947.38
2023-04-08T16:15:42.181Z,100949.66
2023-04-08T16:18:11.392Z,100937.91
2023-04-08T16:20:40.635Z,100953.75
2023-04-08T16:23:10.259Z,100935.97
2023-04-08T16:25:43.145Z,100946.94
2023-04-08T16:28:12.649Z,100946.91
2023-04-08T16:30:45.186Z,100951.84
2023-04-08T16:33:14.563Z,100948.16
2023-04-08T16:35:46.644Z,100954.63
2023-04-08T16:38:16.310Z,100959.47
2023-04-08T16:40:48.234Z,100963.41
2023-04-08T16:43:17.356Z,100954.78
2023-04-08T16:45:46.664Z,100961.72
2023-04-08T16:48:15.708Z,100971.38
2023-04-08T16:50:47.646Z,100961.78
2023-04-08T16:53:16.940Z,100970.53
2023-04-08T16:55:46.297Z,100987.25
2023-04-08T16:58:38.244Z,100987.09
2023-04-08T17:01:14.977Z,101019.00
2023-04-08T17:03:43.840Z,101006.03
2023-04-08T17:06:18.664Z,101011.97
2023-04-08T17:08:47.747Z,101004.44
2023-04-08T17:11:16.794Z,100998.53
2023-04-08T17:13:46.599Z,100995.28
2023-04-08T17:16:18.953Z,101010.16
2023-04-08T17:18:52.170Z,101011.31
2023-04-08T17:21:21.523Z,100994.00
2023-04-08T17:23:50.798Z,101004.44
2023-04-08T17:26:23.854Z,101000.47
2023-04-08T17:28:53.365Z,101005.03
2023-04-08T17:31:22.619Z,101012.19
2023-04-08T17:33:56.655Z,101014.97
2023-04-08T17:36:25.724Z,101015.25
2023-04-08T17:38:54.962Z,101005.22
2023-04-08T17:41:38.314Z,101013.25
2023-04-08T17:44:18.021Z,101031.56
2023-04-08T17:46:55.749Z,101015.75
2023-04-08T17:49:25.312Z,101014.41
2023-04-08T17:51:54.472Z,101014.25
2023-04-08T17:54:25.071Z,101021.88
2023-04-08T17:56:59.702Z,101009.66
2023-04-08T17:59:29.152Z,101018.78
2023-04-08T18:02:20.966Z,101023.53
2023-04-08T18:04:53.281Z,101026.44
2023-04-08T18:07:22.479Z,101046.94
2023-04-08T18:09:55.613Z,101049.31
2023-04-08T18:12:31.325Z,101052.56
2023-04-08T18:15:24.183Z,101076.38
2023-04-08T18:17:56.169Z,101077.00
2023-04-08T18:20:27.188Z,101065.38
2023-04-08T18:22:57.707Z,101079.22
2023-04-08T18:25:26.804Z,101084.91
2023-04-08T18:28:08.080Z,101083.13
2023-04-08T18:30:37.607Z,101113.72
2023-04-08T18:33:07.504Z,101110.31
2023-04-08T18:35:39.691Z,101125.25
2023-04-08T18:38:12.149Z,101127.25
2023-04-08T18:40:57.244Z,101113.78
2023-04-08T18:43:29.643Z,101117.47
2023-04-08T18:46:22.165Z,101114.38
2023-04-08T18:49:20.716Z,101114.38
2023-04-08T18:52:01.730Z,101108.41
2023-04-08T18:54:34.500Z,101106.66
2023-04-08T18:57:14.838Z,101115.47
2023-04-08T18:59:50.065Z,101113.97
2023-04-08T19:02:23.593Z,101107.25
2023-04-08T19:04:52.995Z,101103.72
2023-04-08T19:07:22.294Z,101108.41
2023-04-08T19:09:57.049Z,101115.28
2023-04-08T19:12:29.379Z,101107.22
2023-04-08T19:15:16.017Z,101107.31
2023-04-08T19:17:59.953Z,101108.63
2023-04-08T19:20:54.566Z,101113.84
2023-04-08T19:23:23.705Z,101108.50
2023-04-08T19:25:52.775Z,101112.47
2023-04-08T19:28:22.062Z,101114.06
2023-04-08T19:30:54.623Z,101115.75
2023-04-08T19:33:26.666Z,101105.59
2023-04-08T19:35:56.718Z,101100.84
2023-04-08T19:38:28.161Z,101104.66
2023-04-08T19:41:00.084Z,101108.09
2023-04-08T19:43:34.707Z,101112.13
2023-04-08T19:46:07.361Z,101104.44
2023-04-08T19:48:36.796Z,101101.31
2023-04-08T19:51:32.278Z,101108.72
2023-04-08T19:54:23.712Z,101107.91
2023-04-08T19:56:56.648Z,101092.41
2023-04-08T19:59:32.511Z,101097.44
2023-04-08T20:02:23.157Z,101101.25
2023-04-08T20:04:55.399Z,101096.34
2023-04-08T20:08:09.162Z,101090.81
2023-04-08T20:11:04.785Z,101092.25
2023-04-08T20:13:38.910Z,101101.09
2023-04-08T20:16:10.308Z,101098.72
2023-04-08T20:18:47.415Z,101095.59
2023-04-08T20:21:19.672Z,101093.66
2023-04-08T20:23:59.374Z,101086.59
2023-04-08T20:26:40.070Z,101090.50
2023-04-08T20:29:12.248Z,101085.00
2023-04-08T20:31:42.112Z,101082.84
2023-04-08T20:34:13.879Z,101090.88
2023-04-08T20:36:51.920Z,101097.34
2023-04-08T20:39:38.943Z,101096.69
2023-04-08T20:42:07.677Z,101104.56
2023-04-08T20:44:37.029Z,101116.81
2023-04-08T20:47:06.366Z,101117.84
2023-04-08T20:49:36.080Z,101117.16
2023-04-08T20:52:08.350Z,101119.59
2023-04-08T20:54:37.540Z,101117.72
2023-04-08T20:57:06.691Z,101106.44
2023-04-08T20:59:35.795Z,101111.16
2023-04-08T21:02:05.033Z,101125.25
2023-04-08T21:04:40.200Z,101120.28
2023-04-08T21:07:09.199Z,101122.13
2023-04-08T21:09:38.448Z,101120.88
2023-04-08T21:12:07.503Z,101122.84
2023-04-08T21:14:36.468Z,101125.13
2023-04-08T21:17:05.812Z,101130.66
2023-04-08T21:19:35.522Z,101122.25
2023-04-08T21:22:04.648Z,101122.72
2023-04-08T21:24:36.535Z,101127.34
2023-04-08T21:27:05.650Z,101133.56
2023-04-08T21:29:37.763Z,101139.34
2023-04-08T21:32:07.324Z,101139.50
2023-04-08T21:34:36.490Z,101130.53
2023-04-08T21:37:05.580Z,101137.09
2023-04-08T21:39:37.589Z,101138.91
2023-04-08T21:42:07.334Z,101132.78
2023-04-08T21:44:36.374Z,101134.66
2023-04-08T21:47:05.421Z,101134.44
2023-04-08T21:49:37.710Z,101137.53
2023-04-08T21:52:07.663Z,101141.16
2023-04-08T21:54:39.685Z,101133.97
2023-04-08T21:57:08.792Z,101129.88
2023-04-08T21:59:43.743Z,101134.91
2023-04-08T22:02:13.065Z,101138.31
2023-04-08T22:04:42.384Z,101134.84
2023-04-08T22:07:11.432Z,101131.22
2023-04-08T22:09:40.433Z,101138.94
2023-04-08T22:12:12.140Z,101139.75
2023-04-08T22:14:41.452Z,101152.22
2023-04-08T22:17:13.554Z,101146.13
2023-04-08T22:19:45.356Z,101143.72
2023-04-08T22:22:20.375Z,101135.59
2023-04-08T22:24:49.577Z,101132.59
2023-04-08T22:27:20.867Z,101134.22
2023-04-08T22:29:52.615Z,101135.69
2023-04-08T22:32:22.055Z,101138.16
2023-04-08T22:34:53.455Z,101147.75
2023-04-08T22:37:24.444Z,101150.38
2023-04-08T22:39:55.542Z,101149.31
2023-04-08T22:42:24.613Z,101155.97
2023-04-08T22:44:56.634Z,101150.66
2023-04-08T22:47:31.660Z,101155.63
2023-04-08T22:50:04.307Z,101158.72
2023-04-08T22:52:35.099Z,101163.75
2023-04-08T22:55:07.943Z,101167.00
2023-04-08T22:57:37.668Z,101168.09
2023-04-08T23:00:08.233Z,101161.31
2023-04-08T23:02:38.400Z,101172.31
2023-04-08T23:05:10.817Z,101167.69
2023-04-08T23:07:39.878Z,101163.63
2023-04-08T23:10:09.568Z,101168.91
2023-04-08T23:12:38.537Z,101169.34
2023-04-08T23:15:10.786Z,101153.44
2023-04-08T23:17:48.371Z,101153.56
2023-04-08T23:20:17.565Z,101148.41
2023-04-08T23:22:46.941Z,101143.25
2023-04-08T23:25:18.452Z,101142.16
2023-04-08T23:27:47.537Z,101140.88
2023-04-08T23:30:16.566Z,101146.53
2023-04-08T23:32:45.909Z,101150.34
2023-04-08T23:35:17.336Z,101149.81
2023-04-08T23:37:46.515Z,101148.38
2023-04-08T23:40:15.518Z,101150.59
2023-04-08T23:42:44.645Z,101154.69
2023-04-08T23:45:13.601Z,101150.94
2023-04-08T23:47:42.639Z,101157.72
2023-04-08T23:50:11.733Z,101151.56
2023-04-08T23:52:41.228Z,101139.72
2023-04-08T23:55:14.016Z,101145.28
2023-04-08T23:57:55.789Z,101142.91
